sensor_id;sensor_type;location;lat;lon;timestamp;pressure;altitude;pressure_sealevel;temperature;humidity
41306;BME280;27051;50.376;19.152;2024-02-21T00:01:02;98813.83;;;7.15;68.56
41306;BME280;27051;50.376;19.152;2024-02-21T00:03:48;98815.27;;;7.19;68.56
41306;BME280;27051;50.376;19.152;2024-02-21T00:06:18;98808.86;;;7.19;68.45
41306;BME280;27051;50.376;19.152;2024-02-21T00:08:45;98810.11;;;7.21;68.41
41306;BME280;27051;50.376;19.152;2024-02-21T00:11:12;98809.10;;;7.21;68.31
41306;BME280;27051;50.376;19.152;2024-02-21T00:13:39;98809.44;;;7.20;68.44
41306;BME280;27051;50.376;19.152;2024-02-21T00:16:16;98803.61;;;7.20;68.35
41306;BME280;27051;50.376;19.152;2024-02-21T00:18:49;98800.10;;;7.16;68.27
41306;BME280;27051;50.376;19.152;2024-02-21T00:21:16;98795.92;;;7.14;68.27
41306;BME280;27051;50.376;19.152;2024-02-21T00:23:52;98806.39;;;7.09;68.29
41306;BME280;27051;50.376;19.152;2024-02-21T00:26:20;98806.22;;;7.10;68.49
41306;BME280;27051;50.376;19.152;2024-02-21T00:28:47;98801.45;;;7.10;68.49
41306;BME280;27051;50.376;19.152;2024-02-21T00:31:14;98795.98;;;7.11;68.35
41306;BME280;27051;50.376;19.152;2024-02-21T00:33:43;98794.95;;;7.09;68.39
41306;BME280;27051;50.376;19.152;2024-02-21T00:36:11;98786.73;;;7.08;68.50
41306;BME280;27051;50.376;19.152;2024-02-21T00:38:38;98787.96;;;7.11;68.51
41306;BME280;27051;50.376;19.152;2024-02-21T00:41:05;98784.70;;;7.11;68.41
41306;BME280;27051;50.376;19.152;2024-02-21T00:43:36;98786.08;;;7.12;68.36
41306;BME280;27051;50.376;19.152;2024-02-21T00:46:05;98782.10;;;7.13;68.35
41306;BME280;27051;50.376;19.152;2024-02-21T00:48:35;98775.05;;;7.12;68.48
41306;BME280;27051;50.376;19.152;2024-02-21T00:51:06;98773.58;;;7.09;68.17
41306;BME280;27051;50.376;19.152;2024-02-21T00:53:33;98770.76;;;7.08;68.39
41306;BME280;27051;50.376;19.152;2024-02-21T00:56:07;98773.31;;;7.09;68.50
41306;BME280;27051;50.376;19.152;2024-02-21T00:58:34;98770.82;;;7.08;68.47
41306;BME280;27051;50.376;19.152;2024-02-21T01:01:04;98768.23;;;7.06;68.33
41306;BME280;27051;50.376;19.152;2024-02-21T01:03:33;98763.70;;;7.06;68.35
41306;BME280;27051;50.376;19.152;2024-02-21T01:06:00;98764.48;;;7.05;68.48
41306;BME280;27051;50.376;19.152;2024-02-21T01:08:35;98767.17;;;7.05;68.45
41306;BME280;27051;50.376;19.152;2024-02-21T01:11:02;98763.94;;;7.05;68.35
41306;BME280;27051;50.376;19.152;2024-02-21T01:13:29;98759.61;;;7.01;68.37
41306;BME280;27051;50.376;19.152;2024-02-21T01:15:57;98758.08;;;6.95;68.25
41306;BME280;27051;50.376;19.152;2024-02-21T01:18:23;98759.31;;;6.93;68.53
41306;BME280;27051;50.376;19.152;2024-02-21T01:20:56;98758.35;;;6.92;68.40
41306;BME280;27051;50.376;19.152;2024-02-21T01:23:23;98755.46;;;6.92;68.51
41306;BME280;27051;50.376;19.152;2024-02-21T01:25:50;98756.34;;;6.97;68.46
41306;BME280;27051;50.376;19.152;2024-02-21T01:28:20;98754.91;;;6.96;68.28
41306;BME280;27051;50.376;19.152;2024-02-21T01:30:48;98753.05;;;6.93;68.34
41306;BME280;27051;50.376;19.152;2024-02-21T01:33:15;98753.21;;;6.93;68.31
41306;BME280;27051;50.376;19.152;2024-02-21T01:35:42;98750.16;;;6.93;68.35
41306;BME280;27051;50.376;19.152;2024-02-21T01:38:09;98746.07;;;6.92;68.32
41306;BME280;27051;50.376;19.152;2024-02-21T01:40:39;98745.98;;;6.94;68.48
41306;BME280;27051;50.376;19.152;2024-02-21T01:43:24;98744.19;;;6.92;68.33
41306;BME280;27051;50.376;19.152;2024-02-21T01:46:00;98734.95;;;6.92;68.29
41306;BME280;27051;50.376;19.152;2024-02-21T01:48:28;98729.87;;;6.89;68.35
41306;BME280;27051;50.376;19.152;2024-02-21T01:50:56;98723.30;;;6.86;68.33
41306;BME280;27051;50.376;19.152;2024-02-21T01:53:35;98720.73;;;6.87;68.42
41306;BME280;27051;50.376;19.152;2024-02-21T01:56:04;98724.27;;;6.86;68.36
41306;BME280;27051;50.376;19.152;2024-02-21T01:58:33;98730.46;;;6.82;68.29
41306;BME280;27051;50.376;19.152;2024-02-21T02:01:02;98728.88;;;6.78;68.33
41306;BME280;27051;50.376;19.152;2024-02-21T02:03:32;98730.18;;;6.77;68.46
41306;BME280;27051;50.376;19.152;2024-02-21T02:06:05;98723.66;;;6.74;68.34
41306;BME280;27051;50.376;19.152;2024-02-21T02:08:32;98719.82;;;6.74;68.40
41306;BME280;27051;50.376;19.152;2024-02-21T02:11:00;98714.20;;;6.75;68.46
41306;BME280;27051;50.376;19.152;2024-02-21T02:13:30;98711.56;;;6.72;68.46
41306;BME280;27051;50.376;19.152;2024-02-21T02:16:01;98712.94;;;6.71;68.67
41306;BME280;27051;50.376;19.152;2024-02-21T02:18:28;98710.56;;;6.68;68.72
41306;BME280;27051;50.376;19.152;2024-02-21T02:20:57;98712.77;;;6.69;68.81
41306;BME280;27051;50.376;19.152;2024-02-21T02:23:27;98710.08;;;6.72;68.73
41306;BME280;27051;50.376;19.152;2024-02-21T02:25:55;98708.34;;;6.68;68.76
41306;BME280;27051;50.376;19.152;2024-02-21T02:28:23;98706.45;;;6.69;68.77
41306;BME280;27051;50.376;19.152;2024-02-21T02:30:50;98707.06;;;6.71;68.83
41306;BME280;27051;50.376;19.152;2024-02-21T02:33:17;98698.64;;;6.72;68.81
41306;BME280;27051;50.376;19.152;2024-02-21T02:35:45;98696.00;;;6.68;68.76
41306;BME280;27051;50.376;19.152;2024-02-21T02:38:12;98690.55;;;6.65;68.68
41306;BME280;27051;50.376;19.152;2024-02-21T02:40:40;98689.98;;;6.60;68.70
41306;BME280;27051;50.376;19.152;2024-02-21T02:43:07;98691.08;;;6.61;68.88
41306;BME280;27051;50.376;19.152;2024-02-21T02:45:46;98696.08;;;6.61;68.92
41306;BME280;27051;50.376;19.152;2024-02-21T02:48:14;98695.03;;;6.60;68.83
41306;BME280;27051;50.376;19.152;2024-02-21T02:50:41;98696.98;;;6.61;68.78
41306;BME280;27051;50.376;19.152;2024-02-21T02:53:08;98699.45;;;6.62;68.89
41306;BME280;27051;50.376;19.152;2024-02-21T02:55:37;98696.39;;;6.64;69.01
41306;BME280;27051;50.376;19.152;2024-02-21T02:58:04;98694.47;;;6.67;68.90
41306;BME280;27051;50.376;19.152;2024-02-21T03:00:31;98698.88;;;6.71;68.90
41306;BME280;27051;50.376;19.152;2024-02-21T03:02:58;98691.80;;;6.75;68.87
41306;BME280;27051;50.376;19.152;2024-02-21T03:05:25;98693.35;;;6.80;68.86
41306;BME280;27051;50.376;19.152;2024-02-21T03:07:52;98691.45;;;6.82;68.72
41306;BME280;27051;50.376;19.152;2024-02-21T03:10:19;98690.35;;;6.78;68.72
41306;BME280;27051;50.376;19.152;2024-02-21T03:12:46;98690.23;;;6.76;68.67
41306;BME280;27051;50.376;19.152;2024-02-21T03:15:14;98687.80;;;6.75;68.72
41306;BME280;27051;50.376;19.152;2024-02-21T03:17:41;98688.14;;;6.71;68.64
41306;BME280;27051;50.376;19.152;2024-02-21T03:20:09;98687.48;;;6.72;68.74
41306;BME280;27051;50.376;19.152;2024-02-21T03:22:36;98685.27;;;6.73;68.81
41306;BME280;27051;50.376;19.152;2024-02-21T03:25:04;98686.97;;;6.73;68.72
41306;BME280;27051;50.376;19.152;2024-02-21T03:27:31;98686.38;;;6.77;68.75
41306;BME280;27051;50.376;19.152;2024-02-21T03:29:59;98683.96;;;6.77;68.64
41306;BME280;27051;50.376;19.152;2024-02-21T03:32:26;98691.96;;;6.77;68.67
41306;BME280;27051;50.376;19.152;2024-02-21T03:34:56;98690.94;;;6.81;68.82
41306;BME280;27051;50.376;19.152;2024-02-21T03:40:08;98688.14;;;6.89;68.71
41306;BME280;27051;50.376;19.152;2024-02-21T03:42:38;98684.48;;;6.83;68.71
41306;BME280;27051;50.376;19.152;2024-02-21T03:45:06;98685.20;;;6.79;68.93
41306;BME280;27051;50.376;19.152;2024-02-21T03:47:33;98689.06;;;6.76;68.96
41306;BME280;27051;50.376;19.152;2024-02-21T03:50:01;98685.02;;;6.70;69.06
41306;BME280;27051;50.376;19.152;2024-02-21T03:52:28;98681.16;;;6.68;69.12
41306;BME280;27051;50.376;19.152;2024-02-21T03:54:55;98681.58;;;6.63;69.09
41306;BME280;27051;50.376;19.152;2024-02-21T03:57:22;98683.23;;;6.58;69.18
41306;BME280;27051;50.376;19.152;2024-02-21T03:59:52;98680.99;;;6.52;69.12
41306;BME280;27051;50.376;19.152;2024-02-21T04:02:22;98687.52;;;6.51;69.27
41306;BME280;27051;50.376;19.152;2024-02-21T04:04:49;98686.83;;;6.51;69.23
41306;BME280;27051;50.376;19.152;2024-02-21T04:07:16;98687.30;;;6.54;69.29
41306;BME280;27051;50.376;19.152;2024-02-21T04:09:43;98683.55;;;6.52;69.20
41306;BME280;27051;50.376;19.152;2024-02-21T04:12:19;98680.48;;;6.50;69.16
41306;BME280;27051;50.376;19.152;2024-02-21T04:14:47;98683.83;;;6.49;69.26
41306;BME280;27051;50.376;19.152;2024-02-21T04:17:14;98681.31;;;6.49;69.18
41306;BME280;27051;50.376;19.152;2024-02-21T04:19:41;98682.61;;;6.48;69.35
41306;BME280;27051;50.376;19.152;2024-02-21T04:22:08;98676.55;;;6.50;69.31
41306;BME280;27051;50.376;19.152;2024-02-21T04:24:35;98679.39;;;6.55;69.36
41306;BME280;27051;50.376;19.152;2024-02-21T04:27:02;98676.77;;;6.60;69.40
41306;BME280;27051;50.376;19.152;2024-02-21T04:29:29;98674.52;;;6.66;69.40
41306;BME280;27051;50.376;19.152;2024-02-21T04:31:56;98673.62;;;6.74;69.48
41306;BME280;27051;50.376;19.152;2024-02-21T04:34:24;98673.31;;;6.72;69.27
41306;BME280;27051;50.376;19.152;2024-02-21T04:36:53;98676.34;;;6.79;69.42
41306;BME280;27051;50.376;19.152;2024-02-21T04:39:20;98675.89;;;6.85;69.34
41306;BME280;27051;50.376;19.152;2024-02-21T04:41:50;98676.60;;;6.91;69.43
41306;BME280;27051;50.376;19.152;2024-02-21T04:44:18;98675.53;;;7.00;69.56
41306;BME280;27051;50.376;19.152;2024-02-21T04:46:47;98668.94;;;7.05;69.34
41306;BME280;27051;50.376;19.152;2024-02-21T04:49:14;98661.09;;;7.05;69.02
41306;BME280;27051;50.376;19.152;2024-02-21T04:51:45;98662.63;;;7.00;68.88
41306;BME280;27051;50.376;19.152;2024-02-21T04:54:12;98662.15;;;6.95;68.94
41306;BME280;27051;50.376;19.152;2024-02-21T04:56:39;98661.20;;;6.92;68.99
41306;BME280;27051;50.376;19.152;2024-02-21T04:59:06;98655.76;;;6.89;69.17
41306;BME280;27051;50.376;19.152;2024-02-21T05:01:36;98645.75;;;6.92;69.16
41306;BME280;27051;50.376;19.152;2024-02-21T05:04:03;98641.52;;;6.90;69.01
41306;BME280;27051;50.376;19.152;2024-02-21T05:06:31;98638.34;;;6.86;69.00
41306;BME280;27051;50.376;19.152;2024-02-21T05:08:59;98637.60;;;6.84;69.01
41306;BME280;27051;50.376;19.152;2024-02-21T05:11:28;98635.02;;;6.77;68.89
41306;BME280;27051;50.376;19.152;2024-02-21T05:14:01;98633.42;;;6.74;69.03
41306;BME280;27051;50.376;19.152;2024-02-21T05:16:38;98631.15;;;6.70;69.05
41306;BME280;27051;50.376;19.152;2024-02-21T05:19:05;98630.90;;;6.70;69.16
41306;BME280;27051;50.376;19.152;2024-02-21T05:21:32;98626.21;;;6.69;69.05
41306;BME280;27051;50.376;19.152;2024-02-21T05:24:05;98627.27;;;6.64;69.11
41306;BME280;27051;50.376;19.152;2024-02-21T05:26:32;98627.29;;;6.61;69.06
41306;BME280;27051;50.376;19.152;2024-02-21T05:29:05;98624.86;;;6.60;69.16
41306;BME280;27051;50.376;19.152;2024-02-21T05:34:19;98627.79;;;6.60;69.28
41306;BME280;27051;50.376;19.152;2024-02-21T05:36:47;98628.63;;;6.63;69.33
41306;BME280;27051;50.376;19.152;2024-02-21T05:39:17;98626.98;;;6.65;69.16
41306;BME280;27051;50.376;19.152;2024-02-21T05:41:47;98626.69;;;6.67;69.19
41306;BME280;27051;50.376;19.152;2024-02-21T05:44:15;98624.67;;;6.66;69.16
41306;BME280;27051;50.376;19.152;2024-02-21T05:46:42;98629.73;;;6.66;69.14
41306;BME280;27051;50.376;19.152;2024-02-21T05:49:09;98628.02;;;6.67;69.13
41306;BME280;27051;50.376;19.152;2024-02-21T05:51:46;98624.73;;;6.66;69.11
41306;BME280;27051;50.376;19.152;2024-02-21T05:54:18;98620.95;;;6.65;69.09
41306;BME280;27051;50.376;19.152;2024-02-21T05:56:46;98625.55;;;6.62;69.13
41306;BME280;27051;50.376;19.152;2024-02-21T05:59:13;98620.14;;;6.63;69.04
41306;BME280;27051;50.376;19.152;2024-02-21T06:01:40;98620.36;;;6.58;69.18
41306;BME280;27051;50.376;19.152;2024-02-21T06:04:07;98622.00;;;6.63;69.35
41306;BME280;27051;50.376;19.152;2024-02-21T06:06:34;98624.09;;;6.71;69.23
41306;BME280;27051;50.376;19.152;2024-02-21T06:09:02;98621.16;;;6.75;69.21
41306;BME280;27051;50.376;19.152;2024-02-21T06:11:36;98617.50;;;6.79;69.19
41306;BME280;27051;50.376;19.152;2024-02-21T06:14:06;98617.11;;;6.80;69.10
41306;BME280;27051;50.376;19.152;2024-02-21T06:16:33;98614.15;;;6.81;69.21
41306;BME280;27051;50.376;19.152;2024-02-21T06:19:03;98618.63;;;6.83;69.02
41306;BME280;27051;50.376;19.152;2024-02-21T06:21:30;98619.35;;;6.87;69.13
41306;BME280;27051;50.376;19.152;2024-02-21T06:23:57;98617.83;;;6.91;69.09
41306;BME280;27051;50.376;19.152;2024-02-21T06:26:24;98618.39;;;6.95;69.01
41306;BME280;27051;50.376;19.152;2024-02-21T06:28:54;98621.50;;;6.99;69.10
41306;BME280;27051;50.376;19.152;2024-02-21T06:31:21;98618.65;;;7.07;69.15
41306;BME280;27051;50.376;19.152;2024-02-21T06:34:00;98620.45;;;7.15;69.11
41306;BME280;27051;50.376;19.152;2024-02-21T06:36:33;98620.55;;;7.22;69.13
41306;BME280;27051;50.376;19.152;2024-02-21T06:39:00;98620.80;;;7.27;69.01
41306;BME280;27051;50.376;19.152;2024-02-21T06:41:27;98625.02;;;7.30;68.99
41306;BME280;27051;50.376;19.152;2024-02-21T06:43:57;98617.36;;;7.30;68.75
41306;BME280;27051;50.376;19.152;2024-02-21T06:46:33;98616.19;;;7.29;68.79
41306;BME280;27051;50.376;19.152;2024-02-21T06:49:01;98615.16;;;7.28;68.86
41306;BME280;27051;50.376;19.152;2024-02-21T06:51:29;98613.25;;;7.31;69.01
41306;BME280;27051;50.376;19.152;2024-02-21T06:53:56;98621.27;;;7.34;68.88
41306;BME280;27051;50.376;19.152;2024-02-21T06:56:31;98619.97;;;7.33;68.64
41306;BME280;27051;50.376;19.152;2024-02-21T06:58:58;98620.41;;;7.34;68.83
41306;BME280;27051;50.376;19.152;2024-02-21T07:01:25;98621.47;;;7.32;68.70
41306;BME280;27051;50.376;19.152;2024-02-21T07:03:52;98619.55;;;7.35;68.86
41306;BME280;27051;50.376;19.152;2024-02-21T07:06:19;98622.98;;;7.40;68.85
41306;BME280;27051;50.376;19.152;2024-02-21T07:08:56;98620.15;;;7.42;68.78
41306;BME280;27051;50.376;19.152;2024-02-21T07:11:32;98614.88;;;7.44;68.70
41306;BME280;27051;50.376;19.152;2024-02-21T07:14:02;98614.03;;;7.48;68.78
41306;BME280;27051;50.376;19.152;2024-02-21T07:16:29;98612.66;;;7.51;68.80
41306;BME280;27051;50.376;19.152;2024-02-21T07:18:59;98611.90;;;7.56;68.79
41306;BME280;27051;50.376;19.152;2024-02-21T07:21:26;98618.27;;;7.58;68.63
41306;BME280;27051;50.376;19.152;2024-02-21T07:23:56;98618.69;;;7.60;68.59
41306;BME280;27051;50.376;19.152;2024-02-21T07:26:24;98617.54;;;7.62;68.44
41306;BME280;27051;50.376;19.152;2024-02-21T07:28:53;98618.59;;;7.62;68.29
41306;BME280;27051;50.376;19.152;2024-02-21T07:31:23;98613.73;;;7.58;68.38
41306;BME280;27051;50.376;19.152;2024-02-21T07:34:00;98614.11;;;7.57;68.36
41306;BME280;27051;50.376;19.152;2024-02-21T07:36:35;98610.45;;;7.63;68.40
41306;BME280;27051;50.376;19.152;2024-02-21T07:41:42;98609.46;;;7.64;68.05
41306;BME280;27051;50.376;19.152;2024-02-21T07:44:12;98608.45;;;7.64;68.25
41306;BME280;27051;50.376;19.152;2024-02-21T07:46:42;98607.26;;;7.64;68.22
41306;BME280;27051;50.376;19.152;2024-02-21T07:49:09;98605.08;;;7.65;68.08
41306;BME280;27051;50.376;19.152;2024-02-21T07:51:36;98597.66;;;7.67;68.05
41306;BME280;27051;50.376;19.152;2024-02-21T07:54:03;98598.01;;;7.72;68.07
41306;BME280;27051;50.376;19.152;2024-02-21T07:56:33;98599.55;;;7.77;68.06
41306;BME280;27051;50.376;19.152;2024-02-21T07:59:00;98594.22;;;7.77;67.88
41306;BME280;27051;50.376;19.152;2024-02-21T08:01:27;98598.94;;;7.82;67.88
41306;BME280;27051;50.376;19.152;2024-02-21T08:03:57;98593.92;;;7.89;67.82
41306;BME280;27051;50.376;19.152;2024-02-21T08:06:27;98588.25;;;7.99;67.95
41306;BME280;27051;50.376;19.152;2024-02-21T08:08:54;98585.17;;;8.08;67.67
41306;BME280;27051;50.376;19.152;2024-02-21T08:11:21;98580.63;;;8.15;67.58
41306;BME280;27051;50.376;19.152;2024-02-21T08:13:49;98578.86;;;8.24;67.42
41306;BME280;27051;50.376;19.152;2024-02-21T08:16:16;98577.42;;;8.35;67.28
41306;BME280;27051;50.376;19.152;2024-02-21T08:18:46;98574.02;;;8.47;67.22
41306;BME280;27051;50.376;19.152;2024-02-21T08:21:13;98569.77;;;8.61;66.83
41306;BME280;27051;50.376;19.152;2024-02-21T08:23:43;98562.77;;;8.76;67.01
41306;BME280;27051;50.376;19.152;2024-02-21T08:26:13;98555.14;;;8.97;67.09
41306;BME280;27051;50.376;19.152;2024-02-21T08:28:43;98556.58;;;9.15;66.72
41306;BME280;27051;50.376;19.152;2024-02-21T08:31:10;98551.50;;;9.25;66.48
41306;BME280;27051;50.376;19.152;2024-02-21T08:33:40;98553.17;;;9.38;65.91
41306;BME280;27051;50.376;19.152;2024-02-21T08:36:07;98550.16;;;9.46;65.68
41306;BME280;27051;50.376;19.152;2024-02-21T08:38:37;98551.50;;;9.49;65.48
41306;BME280;27051;50.376;19.152;2024-02-21T08:41:04;98555.04;;;9.50;65.65
41306;BME280;27051;50.376;19.152;2024-02-21T08:43:36;98555.35;;;9.50;65.42
41306;BME280;27051;50.376;19.152;2024-02-21T08:46:06;98550.91;;;9.55;65.79
41306;BME280;27051;50.376;19.152;2024-02-21T08:48:41;98552.71;;;9.66;65.79
41306;BME280;27051;50.376;19.152;2024-02-21T08:51:08;98552.89;;;9.75;65.81
41306;BME280;27051;50.376;19.152;2024-02-21T08:53:35;98551.18;;;9.81;65.51
41306;BME280;27051;50.376;19.152;2024-02-21T08:56:02;98548.65;;;9.89;65.49
41306;BME280;27051;50.376;19.152;2024-02-21T08:58:30;98540.98;;;10.00;64.88
41306;BME280;27051;50.376;19.152;2024-02-21T09:01:00;98534.14;;;10.04;64.29
41306;BME280;27051;50.376;19.152;2024-02-21T09:03:27;98529.10;;;10.16;64.29
41306;BME280;27051;50.376;19.152;2024-02-21T09:05:54;98525.85;;;10.37;64.57
41306;BME280;27051;50.376;19.152;2024-02-21T09:10:59;98525.38;;;10.86;63.70
41306;BME280;27051;50.376;19.152;2024-02-21T09:13:27;98522.94;;;11.28;63.77
41306;BME280;27051;50.376;19.152;2024-02-21T09:15:54;98516.32;;;11.70;63.16
41306;BME280;27051;50.376;19.152;2024-02-21T09:18:21;98516.15;;;11.88;62.82
41306;BME280;27051;50.376;19.152;2024-02-21T09:20:49;98515.83;;;12.01;61.61
41306;BME280;27051;50.376;19.152;2024-02-21T09:23:16;98514.68;;;12.06;61.16
41306;BME280;27051;50.376;19.152;2024-02-21T09:25:52;98515.46;;;12.29;62.21
41306;BME280;27051;50.376;19.152;2024-02-21T09:28:32;98518.24;;;12.69;60.81
41306;BME280;27051;50.376;19.152;2024-02-21T09:31:01;98515.83;;;13.05;60.86
41306;BME280;27051;50.376;19.152;2024-02-21T09:33:29;98518.65;;;13.44;60.18
41306;BME280;27051;50.376;19.152;2024-02-21T09:35:56;98516.70;;;13.53;59.21
41306;BME280;27051;50.376;19.152;2024-02-21T09:38:26;98513.45;;;13.59;59.36
41306;BME280;27051;50.376;19.152;2024-02-21T09:41:13;98521.02;;;13.56;59.18
41306;BME280;27051;50.376;19.152;2024-02-21T09:43:49;98522.32;;;13.46;58.06
41306;BME280;27051;50.376;19.152;2024-02-21T09:46:18;98527.55;;;13.36;58.21
41306;BME280;27051;50.376;19.152;2024-02-21T09:49:21;98528.63;;;13.42;58.52
41306;BME280;27051;50.376;19.152;2024-02-21T09:51:58;98529.73;;;13.69;58.60
41306;BME280;27051;50.376;19.152;2024-02-21T09:54:39;98532.65;;;13.83;57.89
41306;BME280;27051;50.376;19.152;2024-02-21T09:57:14;98529.28;;;13.88;57.70
41306;BME280;27051;50.376;19.152;2024-02-21T10:00:02;98527.66;;;13.98;57.15
41306;BME280;27051;50.376;19.152;2024-02-21T10:02:30;98524.85;;;14.13;55.77
41306;BME280;27051;50.376;19.152;2024-02-21T10:04:57;98522.82;;;14.16;55.61
41306;BME280;27051;50.376;19.152;2024-02-21T10:07:25;98522.12;;;14.16;55.51
41306;BME280;27051;50.376;19.152;2024-02-21T10:10:02;98514.25;;;14.03;54.57
41306;BME280;27051;50.376;19.152;2024-02-21T10:12:30;98519.04;;;13.96;55.09
41306;BME280;27051;50.376;19.152;2024-02-21T10:15:04;98514.86;;;14.05;55.26
41306;BME280;27051;50.376;19.152;2024-02-21T10:17:35;98510.09;;;14.09;55.36
41306;BME280;27051;50.376;19.152;2024-02-21T10:20:09;98511.80;;;14.10;55.54
41306;BME280;27051;50.376;19.152;2024-02-21T10:22:41;98515.96;;;14.05;55.06
41306;BME280;27051;50.376;19.152;2024-02-21T10:25:12;98513.27;;;13.80;55.07
41306;BME280;27051;50.376;19.152;2024-02-21T10:27:53;98511.35;;;13.55;54.89
41306;BME280;27051;50.376;19.152;2024-02-21T10:30:20;98508.77;;;13.38;55.16
41306;BME280;27051;50.376;19.152;2024-02-21T10:33:01;98511.44;;;13.28;55.15
41306;BME280;27051;50.376;19.152;2024-02-21T10:35:32;98510.30;;;13.20;55.44
41306;BME280;27051;50.376;19.152;2024-02-21T10:38:00;98512.08;;;13.09;54.61
41306;BME280;27051;50.376;19.152;2024-02-21T10:40:28;98500.70;;;12.96;55.30
41306;BME280;27051;50.376;19.152;2024-02-21T10:42:59;98497.19;;;12.91;55.43
41306;BME280;27051;50.376;19.152;2024-02-21T10:45:31;98493.69;;;12.93;55.10
41306;BME280;27051;50.376;19.152;2024-02-21T10:48:09;98491.91;;;13.02;55.44
41306;BME280;27051;50.376;19.152;2024-02-21T10:56:31;98474.57;;;13.22;55.40
41306;BME280;27051;50.376;19.152;2024-02-21T10:59:02;98475.48;;;13.30;54.38
41306;BME280;27051;50.376;19.152;2024-02-21T11:01:30;98473.78;;;13.24;54.12
41306;BME280;27051;50.376;19.152;2024-02-21T11:04:02;98473.98;;;13.15;54.48
41306;BME280;27051;50.376;19.152;2024-02-21T11:06:30;98471.61;;;13.04;54.19
41306;BME280;27051;50.376;19.152;2024-02-21T11:09:04;98471.23;;;12.83;53.71
41306;BME280;27051;50.376;19.152;2024-02-21T11:11:40;98459.23;;;12.61;54.18
41306;BME280;27051;50.376;19.152;2024-02-21T11:14:20;98465.05;;;12.43;53.62
41306;BME280;27051;50.376;19.152;2024-02-21T11:16:48;98456.64;;;12.26;54.12
41306;BME280;27051;50.376;19.152;2024-02-21T11:19:23;98454.29;;;12.20;54.41
41306;BME280;27051;50.376;19.152;2024-02-21T11:21:51;98446.41;;;12.16;54.99
41306;BME280;27051;50.376;19.152;2024-02-21T11:24:28;98443.84;;;12.15;54.93
41306;BME280;27051;50.376;19.152;2024-02-21T11:27:12;98438.91;;;12.13;55.11
41306;BME280;27051;50.376;19.152;2024-02-21T11:29:49;98441.17;;;12.08;54.54
41306;BME280;27051;50.376;19.152;2024-02-21T11:32:22;98440.63;;;12.01;54.45
41306;BME280;27051;50.376;19.152;2024-02-21T11:35:02;98437.16;;;11.83;54.26
41306;BME280;27051;50.376;19.152;2024-02-21T11:37:34;98431.96;;;11.69;55.02
41306;BME280;27051;50.376;19.152;2024-02-21T11:40:02;98432.61;;;11.63;55.13
41306;BME280;27051;50.376;19.152;2024-02-21T11:42:32;98426.54;;;11.63;55.36
41306;BME280;27051;50.376;19.152;2024-02-21T11:45:00;98423.58;;;11.64;55.34
41306;BME280;27051;50.376;19.152;2024-02-21T11:47:30;98424.08;;;11.62;55.34
41306;BME280;27051;50.376;19.152;2024-02-21T11:50:03;98422.02;;;11.66;55.69
41306;BME280;27051;50.376;19.152;2024-02-21T11:52:30;98419.05;;;11.69;55.29
41306;BME280;27051;50.376;19.152;2024-02-21T11:54:57;98414.76;;;11.67;55.41
41306;BME280;27051;50.376;19.152;2024-02-21T11:57:27;98412.76;;;11.65;55.08
41306;BME280;27051;50.376;19.152;2024-02-21T12:00:15;98412.96;;;11.51;55.03
41306;BME280;27051;50.376;19.152;2024-02-21T12:02:44;98413.36;;;11.42;55.30
41306;BME280;27051;50.376;19.152;2024-02-21T12:05:11;98415.09;;;11.34;55.46
41306;BME280;27051;50.376;19.152;2024-02-21T12:07:39;98410.16;;;11.22;55.29
41306;BME280;27051;50.376;19.152;2024-02-21T12:10:10;98412.68;;;11.09;55.32
41306;BME280;27051;50.376;19.152;2024-02-21T12:12:38;98411.94;;;11.02;55.53
41306;BME280;27051;50.376;19.152;2024-02-21T12:15:07;98413.88;;;10.96;55.75
41306;BME280;27051;50.376;19.152;2024-02-21T12:17:35;98410.13;;;10.92;56.02
41306;BME280;27051;50.376;19.152;2024-02-21T12:20:06;98412.73;;;10.92;56.20
41306;BME280;27051;50.376;19.152;2024-02-21T12:22:36;98405.05;;;10.90;56.04
41306;BME280;27051;50.376;19.152;2024-02-21T12:25:07;98405.05;;;10.85;56.41
41306;BME280;27051;50.376;19.152;2024-02-21T12:27:42;98408.38;;;10.79;56.41
41306;BME280;27051;50.376;19.152;2024-02-21T12:30:09;98404.96;;;10.75;56.58
41306;BME280;27051;50.376;19.152;2024-02-21T12:32:39;98407.63;;;10.71;56.58
41306;BME280;27051;50.376;19.152;2024-02-21T12:35:15;98400.27;;;10.59;56.77
41306;BME280;27051;50.376;19.152;2024-02-21T12:37:43;98397.64;;;10.44;57.01
41306;BME280;27051;50.376;19.152;2024-02-21T12:40:13;98392.62;;;10.32;57.37
41306;BME280;27051;50.376;19.152;2024-02-21T12:42:45;98392.23;;;10.28;57.66
41306;BME280;27051;50.376;19.152;2024-02-21T12:45:12;98391.93;;;10.26;58.08
41306;BME280;27051;50.376;19.152;2024-02-21T12:47:39;98390.39;;;10.24;58.21
41306;BME280;27051;50.376;19.152;2024-02-21T12:50:07;98386.96;;;10.18;58.53
41306;BME280;27051;50.376;19.152;2024-02-21T12:52:34;98387.70;;;10.11;58.74
41306;BME280;27051;50.376;19.152;2024-02-21T12:55:04;98388.18;;;10.18;58.93
41306;BME280;27051;50.376;19.152;2024-02-21T12:57:32;98386.73;;;10.22;58.82
41306;BME280;27051;50.376;19.152;2024-02-21T12:59:59;98376.91;;;10.18;58.88
41306;BME280;27051;50.376;19.152;2024-02-21T13:02:26;98382.20;;;10.10;58.90
41306;BME280;27051;50.376;19.152;2024-02-21T13:04:53;98379.70;;;10.02;59.14
41306;BME280;27051;50.376;19.152;2024-02-21T13:07:21;98377.91;;;9.95;59.19
41306;BME280;27051;50.376;19.152;2024-02-21T13:09:50;98371.17;;;9.89;59.43
41306;BME280;27051;50.376;19.152;2024-02-21T13:12:20;98371.17;;;9.85;59.93
41306;BME280;27051;50.376;19.152;2024-02-21T13:14:50;98367.35;;;9.85;59.88
41306;BME280;27051;50.376;19.152;2024-02-21T13:17:17;98362.98;;;9.87;59.91
41306;BME280;27051;50.376;19.152;2024-02-21T13:19:57;98358.60;;;9.89;60.04
41306;BME280;27051;50.376;19.152;2024-02-21T13:22:27;98358.13;;;9.81;60.23
41306;BME280;27051;50.376;19.152;2024-02-21T13:25:16;98355.72;;;9.76;60.36
41306;BME280;27051;50.376;19.152;2024-02-21T13:27:54;98356.02;;;9.75;60.43